sensor_id;sensor_type;location;lat;lon;timestamp;P1;durP1;ratioP1;P2;durP2;ratioP2
14015;SDS011;7083;48.854;9.158;2023-05-20T00:00:02;1999.90;;;999.90;;
14015;SDS011;7083;48.854;9.158;2023-05-20T00:02:29;1999.90;;;999.90;;
14015;SDS011;7083;48.854;9.158;2023-05-20T00:04:56;1999.90;;;999.90;;
14015;SDS011;7083;48.854;9.158;2023-05-20T00:07:22;1999.90;;;999.90;;
14015;SDS011;7083;48.854;9.158;2023-05-20T00:09:49;1999.90;;;999.90;;
14015;SDS011;7083;48.854;9.158;2023-05-20T00:12:16;1999.90;;;999.90;;
14015;SDS011;7083;48.854;9.158;2023-05-20T00:14:44;1999.90;;;999.90;;
14015;SDS011;7083;48.854;9.158;2023-05-20T00:17:10;1999.90;;;999.90;;
14015;SDS011;7083;48.854;9.158;2023-05-20T00:19:37;1999.90;;;999.90;;
14015;SDS011;7083;48.854;9.158;2023-05-20T00:22:04;1999.90;;;999.90;;
14015;SDS011;7083;48.854;9.158;2023-05-20T00:24:31;1999.90;;;999.90;;
14015;SDS011;7083;48.854;9.158;2023-05-20T00:26:58;1999.90;;;999.90;;
14015;SDS011;7083;48.854;9.158;2023-05-20T00:29:24;1999.90;;;999.90;;
14015;SDS011;7083;48.854;9.158;2023-05-20T00:31:53;1999.90;;;999.90;;
14015;SDS011;7083;48.854;9.158;2023-05-20T00:34:20;1999.90;;;999.90;;
14015;SDS011;7083;48.854;9.158;2023-05-20T00:36:47;1999.90;;;999.90;;
14015;SDS011;7083;48.854;9.158;2023-05-20T00:39:13;1999.90;;;999.90;;
14015;SDS011;7083;48.854;9.158;2023-05-20T00:41:40;1999.90;;;999.90;;
14015;SDS011;7083;48.854;9.158;2023-05-20T00:44:07;1999.90;;;999.90;;
14015;SDS011;7083;48.854;9.158;2023-05-20T00:46:34;1999.90;;;999.90;;
14015;SDS011;7083;48.854;9.158;2023-05-20T00:49:02;1999.90;;;999.90;;
14015;SDS011;7083;48.854;9.158;2023-05-20T00:51:29;1999.90;;;999.90;;
14015;SDS011;7083;48.854;9.158;2023-05-20T00:53:56;1999.90;;;999.90;;
14015;SDS011;7083;48.854;9.158;2023-05-20T00:56:24;1999.90;;;999.90;;
14015;SDS011;7083;48.854;9.158;2023-05-20T00:58:50;1999.90;;;999.90;;
14015;SDS011;7083;48.854;9.158;2023-05-20T01:01:17;1999.90;;;999.90;;
14015;SDS011;7083;48.854;9.158;2023-05-20T01:03:44;1999.90;;;999.90;;
14015;SDS011;7083;48.854;9.158;2023-05-20T01:06:13;1999.90;;;999.90;;
14015;SDS011;7083;48.854;9.158;2023-05-20T01:08:40;1999.90;;;999.90;;
14015;SDS011;7083;48.854;9.158;2023-05-20T01:11:07;1999.90;;;999.90;;
14015;SDS011;7083;48.854;9.158;2023-05-20T01:13:38;1447.10;;;775.77;;
14015;SDS011;7083;48.854;9.158;2023-05-20T01:16:08;315.33;;;302.53;;
14015;SDS011;7083;48.854;9.158;2023-05-20T01:18:36;304.23;;;292.03;;
14015;SDS011;7083;48.854;9.158;2023-05-20T01:21:05;1999.90;;;999.90;;
14015;SDS011;7083;48.854;9.158;2023-05-20T01:23:38;1447.93;;;776.63;;
14015;SDS011;7083;48.854;9.158;2023-05-20T01:26:05;1999.90;;;999.90;;
14015;SDS011;7083;48.854;9.158;2023-05-20T01:28:32;291.97;;;280.27;;
14015;SDS011;7083;48.854;9.158;2023-05-20T01:31:00;267.40;;;256.70;;
14015;SDS011;7083;48.854;9.158;2023-05-20T01:33:29;262.47;;;252.07;;
14015;SDS011;7083;48.854;9.158;2023-05-20T01:35:59;219.03;;;210.33;;
14015;SDS011;7083;48.854;9.158;2023-05-20T01:38:26;192.90;;;185.23;;
14015;SDS011;7083;48.854;9.158;2023-05-20T01:40:55;198.07;;;189.97;;
14015;SDS011;7083;48.854;9.158;2023-05-20T01:43:23;1395.67;;;726.43;;
14015;SDS011;7083;48.854;9.158;2023-05-20T01:45:50;1399.23;;;729.90;;
14015;SDS011;7083;48.854;9.158;2023-05-20T01:48:17;1999.90;;;999.90;;
14015;SDS011;7083;48.854;9.158;2023-05-20T01:50:44;1999.90;;;999.90;;
14015;SDS011;7083;48.854;9.158;2023-05-20T01:53:11;1391.77;;;722.77;;
14015;SDS011;7083;48.854;9.158;2023-05-20T01:55:37;1399.10;;;729.83;;
14015;SDS011;7083;48.854;9.158;2023-05-20T01:58:05;1999.90;;;999.90;;
14015;SDS011;7083;48.854;9.158;2023-05-20T02:00:32;233.37;;;224.07;;
14015;SDS011;7083;48.854;9.158;2023-05-20T02:02:59;1999.90;;;999.90;;
14015;SDS011;7083;48.854;9.158;2023-05-20T02:05:27;1447.40;;;776.00;;
14015;SDS011;7083;48.854;9.158;2023-05-20T02:07:54;1999.90;;;999.90;;
14015;SDS011;7083;48.854;9.158;2023-05-20T02:10:20;1453.50;;;781.90;;
14015;SDS011;7083;48.854;9.158;2023-05-20T02:12:47;369.97;;;354.50;;
14015;SDS011;7083;48.854;9.158;2023-05-20T02:15:15;369.23;;;353.73;;
14015;SDS011;7083;48.854;9.158;2023-05-20T02:17:42;1999.90;;;999.90;;
14015;SDS011;7083;48.854;9.158;2023-05-20T02:20:09;1999.90;;;999.90;;
14015;SDS011;7083;48.854;9.158;2023-05-20T02:22:36;1999.90;;;999.90;;
14015;SDS011;7083;48.854;9.158;2023-05-20T02:25:03;1999.90;;;999.90;;
14015;SDS011;7083;48.854;9.158;2023-05-20T02:27:30;1999.90;;;999.90;;
14015;SDS011;7083;48.854;9.158;2023-05-20T02:29:56;1999.90;;;999.90;;
14015;SDS011;7083;48.854;9.158;2023-05-20T02:32:24;1999.90;;;999.90;;
14015;SDS011;7083;48.854;9.158;2023-05-20T02:34:52;1999.90;;;999.90;;
14015;SDS011;7083;48.854;9.158;2023-05-20T02:37:19;1999.90;;;999.90;;
14015;SDS011;7083;48.854;9.158;2023-05-20T02:39:46;1999.90;;;999.90;;
14015;SDS011;7083;48.854;9.158;2023-05-20T02:42:13;1999.90;;;999.90;;
14015;SDS011;7083;48.854;9.158;2023-05-20T02:44:39;1999.90;;;999.90;;
14015;SDS011;7083;48.854;9.158;2023-05-20T02:47:06;1999.90;;;999.90;;
14015;SDS011;7083;48.854;9.158;2023-05-20T02:49:34;1999.90;;;999.90;;
14015;SDS011;7083;48.854;9.158;2023-05-20T02:52:01;1999.90;;;999.90;;
14015;SDS011;7083;48.854;9.158;2023-05-20T02:54:28;1999.90;;;999.90;;
14015;SDS011;7083;48.854;9.158;2023-05-20T02:56:54;1999.90;;;999.90;;
14015;SDS011;7083;48.854;9.158;2023-05-20T02:59:21;1999.90;;;999.90;;
14015;SDS011;7083;48.854;9.158;2023-05-20T03:01:48;1999.90;;;999.90;;
14015;SDS011;7083;48.854;9.158;2023-05-20T03:04:14;1999.90;;;999.90;;
14015;SDS011;7083;48.854;9.158;2023-05-20T03:06:44;1999.90;;;999.90;;
14015;SDS011;7083;48.854;9.158;2023-05-20T03:09:11;1999.90;;;999.90;;
14015;SDS011;7083;48.854;9.158;2023-05-20T03:11:38;1999.90;;;999.90;;
14015;SDS011;7083;48.854;9.158;2023-05-20T03:14:05;1999.90;;;999.90;;
14015;SDS011;7083;48.854;9.158;2023-05-20T03:16:31;1999.90;;;999.90;;
14015;SDS011;7083;48.854;9.158;2023-05-20T03:18:59;1999.90;;;999.90;;
14015;SDS011;7083;48.854;9.158;2023-05-20T03:21:26;1999.90;;;999.90;;
14015;SDS011;7083;48.854;9.158;2023-05-20T03:23:54;1999.90;;;999.90;;
14015;SDS011;7083;48.854;9.158;2023-05-20T03:26:21;1999.90;;;999.90;;
14015;SDS011;7083;48.854;9.158;2023-05-20T03:28:49;1999.90;;;999.90;;
14015;SDS011;7083;48.854;9.158;2023-05-20T03:31:16;1999.90;;;999.90;;
14015;SDS011;7083;48.854;9.158;2023-05-20T03:33:43;1999.90;;;999.90;;
14015;SDS011;7083;48.854;9.158;2023-05-20T03:36:10;1999.90;;;999.90;;
14015;SDS011;7083;48.854;9.158;2023-05-20T03:38:37;1999.90;;;999.90;;
14015;SDS011;7083;48.854;9.158;2023-05-20T03:41:04;1999.90;;;999.90;;
14015;SDS011;7083;48.854;9.158;2023-05-20T03:43:31;1999.90;;;999.90;;
14015;SDS011;7083;48.854;9.158;2023-05-20T03:45:58;1999.90;;;999.90;;
14015;SDS011;7083;48.854;9.158;2023-05-20T03:48:24;1999.90;;;999.90;;
14015;SDS011;7083;48.854;9.158;2023-05-20T03:50:51;1999.90;;;999.90;;
14015;SDS011;7083;48.854;9.158;2023-05-20T03:53:18;1999.90;;;999.90;;
14015;SDS011;7083;48.854;9.158;2023-05-20T03:55:45;1999.90;;;999.90;;
14015;SDS011;7083;48.854;9.158;2023-05-20T03:58:13;1999.90;;;999.90;;
14015;SDS011;7083;48.854;9.158;2023-05-20T04:00:39;1999.90;;;999.90;;
14015;SDS011;7083;48.854;9.158;2023-05-20T04:03:06;1999.90;;;999.90;;
14015;SDS011;7083;48.854;9.158;2023-05-20T04:05:33;1999.90;;;999.90;;
14015;SDS011;7083;48.854;9.158;2023-05-20T04:08:01;1999.90;;;999.90;;
14015;SDS011;7083;48.854;9.158;2023-05-20T04:10:28;1999.90;;;999.90;;
14015;SDS011;7083;48.854;9.158;2023-05-20T04:12:56;1999.90;;;999.90;;
14015;SDS011;7083;48.854;9.158;2023-05-20T04:15:24;1999.90;;;999.90;;
14015;SDS011;7083;48.854;9.158;2023-05-20T04:17:53;1999.90;;;999.90;;
14015;SDS011;7083;48.854;9.158;2023-05-20T04:20:20;1999.90;;;999.90;;
14015;SDS011;7083;48.854;9.158;2023-05-20T04:22:48;1999.90;;;999.90;;
14015;SDS011;7083;48.854;9.158;2023-05-20T04:25:14;1999.90;;;999.90;;
14015;SDS011;7083;48.854;9.158;2023-05-20T04:27:41;1999.90;;;999.90;;
14015;SDS011;7083;48.854;9.158;2023-05-20T04:30:09;1999.90;;;999.90;;
14015;SDS011;7083;48.854;9.158;2023-05-20T04:32:37;1999.90;;;999.90;;
14015;SDS011;7083;48.854;9.158;2023-05-20T04:35:05;1999.90;;;999.90;;
14015;SDS011;7083;48.854;9.158;2023-05-20T04:37:35;1999.90;;;999.90;;
14015;SDS011;7083;48.854;9.158;2023-05-20T04:40:02;1999.90;;;999.90;;
14015;SDS011;7083;48.854;9.158;2023-05-20T04:42:30;1999.90;;;999.90;;
14015;SDS011;7083;48.854;9.158;2023-05-20T04:44:57;1999.90;;;999.90;;
14015;SDS011;7083;48.854;9.158;2023-05-20T04:47:25;1999.90;;;999.90;;
14015;SDS011;7083;48.854;9.158;2023-05-20T04:49:53;1999.90;;;999.90;;
14015;SDS011;7083;48.854;9.158;2023-05-20T04:52:21;1999.90;;;999.90;;
14015;SDS011;7083;48.854;9.158;2023-05-20T04:54:48;1999.90;;;999.90;;
14015;SDS011;7083;48.854;9.158;2023-05-20T04:57:15;1999.90;;;999.90;;
14015;SDS011;7083;48.854;9.158;2023-05-20T04:59:45;1999.90;;;999.90;;
14015;SDS011;7083;48.854;9.158;2023-05-20T05:02:11;1999.90;;;999.90;;
14015;SDS011;7083;48.854;9.158;2023-05-20T05:04:38;1999.90;;;999.90;;
14015;SDS011;7083;48.854;9.158;2023-05-20T05:07:06;1999.90;;;999.90;;
14015;SDS011;7083;48.854;9.158;2023-05-20T05:09:33;1999.90;;;999.90;;
14015;SDS011;7083;48.854;9.158;2023-05-20T05:12:00;1999.90;;;999.90;;
14015;SDS011;7083;48.854;9.158;2023-05-20T05:14:27;1999.90;;;999.90;;
14015;SDS011;7083;48.854;9.158;2023-05-20T05:16:53;1999.90;;;999.90;;
14015;SDS011;7083;48.854;9.158;2023-05-20T05:19:20;1999.90;;;999.90;;
14015;SDS011;7083;48.854;9.158;2023-05-20T05:21:47;1999.90;;;999.90;;
14015;SDS011;7083;48.854;9.158;2023-05-20T05:24:14;1999.90;;;999.90;;
14015;SDS011;7083;48.854;9.158;2023-05-20T05:26:41;1999.90;;;999.90;;
14015;SDS011;7083;48.854;9.158;2023-05-20T05:29:08;1999.90;;;999.90;;
14015;SDS011;7083;48.854;9.158;2023-05-20T05:31:35;1999.90;;;999.90;;
14015;SDS011;7083;48.854;9.158;2023-05-20T05:34:01;1999.90;;;999.90;;
14015;SDS011;7083;48.854;9.158;2023-05-20T05:36:28;1999.90;;;999.90;;
14015;SDS011;7083;48.854;9.158;2023-05-20T05:38:57;262.57;;;251.90;;
14015;SDS011;7083;48.854;9.158;2023-05-20T05:41:25;314.03;;;301.13;;
14015;SDS011;7083;48.854;9.158;2023-05-20T05:43:52;1999.90;;;999.90;;
14015;SDS011;7083;48.854;9.158;2023-05-20T05:46:19;1999.90;;;999.90;;
14015;SDS011;7083;48.854;9.158;2023-05-20T05:48:46;1999.90;;;999.90;;
14015;SDS011;7083;48.854;9.158;2023-05-20T05:51:14;1999.90;;;999.90;;
14015;SDS011;7083;48.854;9.158;2023-05-20T05:53:41;1999.90;;;999.90;;
14015;SDS011;7083;48.854;9.158;2023-05-20T05:56:08;1445.73;;;774.30;;
14015;SDS011;7083;48.854;9.158;2023-05-20T05:58:36;890.63;;;547.87;;
14015;SDS011;7083;48.854;9.158;2023-05-20T06:01:03;1999.90;;;999.90;;
14015;SDS011;7083;48.854;9.158;2023-05-20T06:03:29;1999.90;;;999.90;;
14015;SDS011;7083;48.854;9.158;2023-05-20T06:05:56;1999.90;;;999.90;;
14015;SDS011;7083;48.854;9.158;2023-05-20T06:08:23;1999.90;;;999.90;;
14015;SDS011;7083;48.854;9.158;2023-05-20T06:10:50;1446.50;;;775.03;;
14015;SDS011;7083;48.854;9.158;2023-05-20T06:13:17;1500.87;;;826.27;;
14015;SDS011;7083;48.854;9.158;2023-05-20T06:15:45;1999.90;;;999.90;;
14015;SDS011;7083;48.854;9.158;2023-05-20T06:18:13;1505.70;;;830.80;;
14015;SDS011;7083;48.854;9.158;2023-05-20T06:20:40;484.93;;;462.57;;
14015;SDS011;7083;48.854;9.158;2023-05-20T06:23:07;504.50;;;480.73;;
14015;SDS011;7083;48.854;9.158;2023-05-20T06:25:33;514.37;;;489.47;;
14015;SDS011;7083;48.854;9.158;2023-05-20T06:28:00;1522.53;;;846.13;;
14015;SDS011;7083;48.854;9.158;2023-05-20T06:30:27;1999.90;;;999.90;;
14015;SDS011;7083;48.854;9.158;2023-05-20T06:32:55;1529.90;;;852.73;;
14015;SDS011;7083;48.854;9.158;2023-05-20T06:35:21;1999.90;;;999.90;;
14015;SDS011;7083;48.854;9.158;2023-05-20T06:37:48;1999.90;;;999.90;;
14015;SDS011;7083;48.854;9.158;2023-05-20T06:40:14;1999.90;;;999.90;;
14015;SDS011;7083;48.854;9.158;2023-05-20T06:42:41;1999.90;;;999.90;;
14015;SDS011;7083;48.854;9.158;2023-05-20T06:45:08;1999.90;;;999.90;;
14015;SDS011;7083;48.854;9.158;2023-05-20T06:47:35;1999.90;;;999.90;;
14015;SDS011;7083;48.854;9.158;2023-05-20T06:50:04;1999.90;;;999.90;;
14015;SDS011;7083;48.854;9.158;2023-05-20T06:52:31;1999.90;;;999.90;;
14015;SDS011;7083;48.854;9.158;2023-05-20T06:54:57;547.03;;;519.10;;
14015;SDS011;7083;48.854;9.158;2023-05-20T06:57:24;569.70;;;540.70;;
14015;SDS011;7083;48.854;9.158;2023-05-20T06:59:51;610.50;;;577.90;;
14015;SDS011;7083;48.854;9.158;2023-05-20T07:02:17;614.20;;;580.50;;
14015;SDS011;7083;48.854;9.158;2023-05-20T07:04:44;634.97;;;600.80;;
14015;SDS011;7083;48.854;9.158;2023-05-20T07:07:12;626.27;;;592.63;;
14015;SDS011;7083;48.854;9.158;2023-05-20T07:09:39;624.00;;;591.20;;
14015;SDS011;7083;48.854;9.158;2023-05-20T07:12:06;628.90;;;595.53;;
14015;SDS011;7083;48.854;9.158;2023-05-20T07:14:32;619.03;;;586.00;;
14015;SDS011;7083;48.854;9.158;2023-05-20T07:16:59;624.90;;;591.43;;
14015;SDS011;7083;48.854;9.158;2023-05-20T07:19:26;670.43;;;632.87;;
14015;SDS011;7083;48.854;9.158;2023-05-20T07:21:52;658.77;;;622.50;;
14015;SDS011;7083;48.854;9.158;2023-05-20T07:24:20;656.07;;;619.30;;
14015;SDS011;7083;48.854;9.158;2023-05-20T07:26:47;630.60;;;595.80;;
14015;SDS011;7083;48.854;9.158;2023-05-20T07:29:14;645.07;;;606.47;;
14015;SDS011;7083;48.854;9.158;2023-05-20T07:31:40;1558.40;;;878.60;;
14015;SDS011;7083;48.854;9.158;2023-05-20T07:34:07;1999.90;;;999.90;;
14015;SDS011;7083;48.854;9.158;2023-05-20T07:36:34;646.87;;;609.03;;
14015;SDS011;7083;48.854;9.158;2023-05-20T07:39:01;1999.90;;;999.90;;
14015;SDS011;7083;48.854;9.158;2023-05-20T07:41:30;1999.90;;;999.90;;
14015;SDS011;7083;48.854;9.158;2023-05-20T07:43:56;1999.90;;;999.90;;
14015;SDS011;7083;48.854;9.158;2023-05-20T07:46:23;1057.17;;;700.30;;
14015;SDS011;7083;48.854;9.158;2023-05-20T07:48:50;1999.90;;;999.90;;
14015;SDS011;7083;48.854;9.158;2023-05-20T07:51:16;1999.90;;;999.90;;
14015;SDS011;7083;48.854;9.158;2023-05-20T07:53:43;1999.90;;;999.90;;
14015;SDS011;7083;48.854;9.158;2023-05-20T07:56:10;1999.90;;;999.90;;
14015;SDS011;7083;48.854;9.158;2023-05-20T07:58:39;1558.47;;;878.03;;
14015;SDS011;7083;48.854;9.158;2023-05-20T08:01:06;1571.37;;;890.20;;
14015;SDS011;7083;48.854;9.158;2023-05-20T08:03:33;1999.90;;;999.90;;
14015;SDS011;7083;48.854;9.158;2023-05-20T08:06:01;1999.90;;;999.90;;
14015;SDS011;7083;48.854;9.158;2023-05-20T08:08:28;1999.90;;;999.90;;
14015;SDS011;7083;48.854;9.158;2023-05-20T08:10:55;1137.87;;;775.10;;
14015;SDS011;7083;48.854;9.158;2023-05-20T08:13:23;1563.33;;;882.23;;
14015;SDS011;7083;48.854;9.158;2023-05-20T08:15:52;1999.90;;;999.90;;
14015;SDS011;7083;48.854;9.158;2023-05-20T08:18:19;671.50;;;630.10;;
14015;SDS011;7083;48.854;9.158;2023-05-20T08:20:46;1999.90;;;999.90;;
14015;SDS011;7083;48.854;9.158;2023-05-20T08:23:13;1999.90;;;999.90;;
14015;SDS011;7083;48.854;9.158;2023-05-20T08:25:39;1999.90;;;999.90;;
14015;SDS011;7083;48.854;9.158;2023-05-20T08:28:06;1999.90;;;999.90;;
14015;SDS011;7083;48.854;9.158;2023-05-20T08:30:33;1999.90;;;999.90;;
14015;SDS011;7083;48.854;9.158;2023-05-20T08:33:01;1999.90;;;999.90;;
14015;SDS011;7083;48.854;9.158;2023-05-20T08:35:27;1999.90;;;999.90;;
14015;SDS011;7083;48.854;9.158;2023-05-20T08:37:54;1999.90;;;999.90;;
14015;SDS011;7083;48.854;9.158;2023-05-20T08:40:21;1999.90;;;999.90;;
14015;SDS011;7083;48.854;9.158;2023-05-20T08:42:48;1999.90;;;999.90;;
14015;SDS011;7083;48.854;9.158;2023-05-20T08:45:17;1999.90;;;999.90;;
14015;SDS011;7083;48.854;9.158;2023-05-20T08:47:45;1999.90;;;999.90;;
14015;SDS011;7083;48.854;9.158;2023-05-20T08:50:13;1999.90;;;999.90;;
14015;SDS011;7083;48.854;9.158;2023-05-20T08:52:41;1999.90;;;999.90;;
14015;SDS011;7083;48.854;9.158;2023-05-20T08:55:10;1999.90;;;999.90;;
14015;SDS011;7083;48.854;9.158;2023-05-20T08:57:40;1999.90;;;999.90;;
14015;SDS011;7083;48.854;9.158;2023-05-20T09:00:10;1999.90;;;999.90;;
14015;SDS011;7083;48.854;9.158;2023-05-20T09:02:40;1999.90;;;999.90;;
14015;SDS011;7083;48.854;9.158;2023-05-20T09:05:07;1999.90;;;999.90;;
14015;SDS011;7083;48.854;9.158;2023-05-20T09:07:37;1999.90;;;999.90;;
14015;SDS011;7083;48.854;9.158;2023-05-20T09:10:04;1999.90;;;999.90;;
14015;SDS011;7083;48.854;9.158;2023-05-20T09:12:31;1999.90;;;999.90;;
14015;SDS011;7083;48.854;9.158;2023-05-20T09:14:57;1999.90;;;999.90;;
14015;SDS011;7083;48.854;9.158;2023-05-20T09:17:24;1999.90;;;999.90;;
14015;SDS011;7083;48.854;9.158;2023-05-20T09:19:51;1999.90;;;999.90;;
14015;SDS011;7083;48.854;9.158;2023-05-20T09:22:21;1999.90;;;999.90;;
14015;SDS011;7083;48.854;9.158;2023-05-20T09:24:50;1999.90;;;999.90;;
14015;SDS011;7083;48.854;9.158;2023-05-20T09:27:17;1999.90;;;999.90;;
14015;SDS011;7083;48.854;9.158;2023-05-20T09:29:44;1999.90;;;999.90;;
14015;SDS011;7083;48.854;9.158;2023-05-20T09:32:12;1999.90;;;999.90;;
14015;SDS011;7083;48.854;9.158;2023-05-20T09:34:39;1999.90;;;999.90;;
14015;SDS011;7083;48.854;9.158;2023-05-20T09:37:07;1999.90;;;999.90;;
14015;SDS011;7083;48.854;9.158;2023-05-20T09:39:35;1999.90;;;999.90;;
14015;SDS011;7083;48.854;9.158;2023-05-20T09:42:11;1999.90;;;999.90;;
14015;SDS011;7083;48.854;9.158;2023-05-20T09:44:43;1999.90;;;999.90;;
14015;SDS011;7083;48.854;9.158;2023-05-20T09:47:12;1999.90;;;999.90;;
14015;SDS011;7083;48.854;9.158;2023-05-20T09:49:39;1999.90;;;999.90;;
14015;SDS011;7083;48.854;9.158;2023-05-20T09:52:07;1999.90;;;999.90;;
14015;SDS011;7083;48.854;9.158;2023-05-20T09:54:34;1999.90;;;999.90;;
14015;SDS011;7083;48.854;9.158;2023-05-20T09:57:01;1999.90;;;999.90;;
14015;SDS011;7083;48.854;9.158;2023-05-20T09:59:31;1999.90;;;999.90;;
14015;SDS011;7083;48.854;9.158;2023-05-20T10:01:58;1999.90;;;999.90;;
14015;SDS011;7083;48.854;9.158;2023-05-20T10:04:25;1999.90;;;999.90;;
14015;SDS011;7083;48.854;9.158;2023-05-20T10:06:58;1999.90;;;999.90;;
14015;SDS011;7083;48.854;9.158;2023-05-20T10:09:39;1999.90;;;999.90;;
14015;SDS011;7083;48.854;9.158;2023-05-20T10:12:19;1999.90;;;999.90;;
14015;SDS011;7083;48.854;9.158;2023-05-20T10:14:56;1999.90;;;999.90;;
14015;SDS011;7083;48.854;9.158;2023-05-20T10:17:33;1999.90;;;999.90;;
14015;SDS011;7083;48.854;9.158;2023-05-20T10:20:05;1999.90;;;999.90;;
14015;SDS011;7083;48.854;9.158;2023-05-20T10:22:36;1999.90;;;999.90;;
14015;SDS011;7083;48.854;9.158;2023-05-20T10:25:04;1999.90;;;999.90;;
14015;SDS011;7083;48.854;9.158;2023-05-20T10:27:41;1999.90;;;999.90;;
14015;SDS011;7083;48.854;9.158;2023-05-20T10:30:15;1999.90;;;999.90;;
14015;SDS011;7083;48.854;9.158;2023-05-20T10:32:47;1999.90;;;999.90;;
14015;SDS011;7083;48.854;9.158;2023-05-20T10:35:19;1999.90;;;999.90;;
14015;SDS011;7083;48.854;9.158;2023-05-20T10:37:50;1999.90;;;999.90;;
14015;SDS011;7083;48.854;9.158;2023-05-20T10:40:18;1999.90;;;999.90;;
14015;SDS011;7083;48.854;9.158;2023-05-20T10:42:46;1999.90;;;999.90;;
14015;SDS011;7083;48.854;9.158;2023-05-20T10:45:24;1999.90;;;999.90;;
14015;SDS011;7083;48.854;9.158;2023-05-20T10:47:53;1999.90;;;999.90;;
14015;SDS011;7083;48.854;9.158;2023-05-20T10:50:27;1999.90;;;999.90;;
14015;SDS011;7083;48.854;9.158;2023-05-20T10:53:02;1999.90;;;999.90;;
14015;SDS011;7083;48.854;9.158;2023-05-20T10:55:34;1999.90;;;999.90;;
14015;SDS011;7083;48.854;9.158;2023-05-20T10:58:02;1999.90;;;999.90;;
14015;SDS011;7083;48.854;9.158;2023-05-20T11:00:33;1999.90;;;999.90;;
14015;SDS011;7083;48.854;9.158;2023-05-20T11:03:00;1999.90;;;999.90;;
14015;SDS011;7083;48.854;9.158;2023-05-20T11:05:26;1999.90;;;999.90;;
14015;SDS011;7083;48.854;9.158;2023-05-20T11:07:59;1999.90;;;999.90;;
14015;SDS011;7083;48.854;9.158;2023-05-20T11:10:26;1999.90;;;999.90;;
14015;SDS011;7083;48.854;9.158;2023-05-20T11:12:53;1999.90;;;999.90;;
14015;SDS011;7083;48.854;9.158;2023-05-20T11:15:21;1999.90;;;999.90;;
14015;SDS011;7083;48.854;9.158;2023-05-20T11:17:53;1999.90;;;999.90;;
14015;SDS011;7083;48.854;9.158;2023-05-20T11:20:21;1999.90;;;999.90;;
14015;SDS011;7083;48.854;9.158;2023-05-20T11:22:48;1999.90;;;999.90;;
14015;SDS011;7083;48.854;9.158;2023-05-20T11:25:15;1999.90;;;999.90;;
14015;SDS011;7083;48.854;9.158;2023-05-20T11:27:42;1999.90;;;999.90;;
14015;SDS011;7083;48.854;9.158;2023-05-20T11:30:10;1999.90;;;999.90;;
14015;SDS011;7083;48.854;9.158;2023-05-20T11:32:40;1999.90;;;999.90;;
14015;SDS011;7083;48.854;9.158;2023-05-20T11:35:08;1999.90;;;999.90;;
14015;SDS011;7083;48.854;9.158;2023-05-20T11:37:52;1999.90;;;999.90;;
14015;SDS011;7083;48.854;9.158;2023-05-20T11:40:22;1999.90;;;999.90;;
14015;SDS011;7083;48.854;9.158;2023-05-20T11:42:51;1999.90;;;999.90;;
14015;SDS011;7083;48.854;9.158;2023-05-20T11:45:19;1999.90;;;999.90;;
14015;SDS011;7083;48.854;9.158;2023-05-20T11:47:45;1999.90;;;999.90;;
14015;SDS011;7083;48.854;9.158;2023-05-20T11:50:17;1999.90;;;999.90;;
14015;SDS011;7083;48.854;9.158;2023-05-20T11:52:45;1999.90;;;999.90;;
14015;SDS011;7083;48.854;9.158;2023-05-20T11:55:13;1999.90;;;999.90;;
14015;SDS011;7083;48.854;9.158;2023-05-20T11:57:40;1999.90;;;999.90;;
14015;SDS011;7083;48.854;9.158;2023-05-20T12:00:07;1999.90;;;999.90;;
14015;SDS011;7083;48.854;9.158;2023-05-20T12:02:34;1999.90;;;999.90;;
14015;SDS011;7083;48.854;9.158;2023-05-20T12:05:01;1999.90;;;999.90;;
14015;SDS011;7083;48.854;9.158;2023-05-20T12:07:29;1999.90;;;999.90;;
14015;SDS011;7083;48.854;9.158;2023-05-20T12:09:56;1999.90;;;999.90;;
14015;SDS011;7083;48.854;9.158;2023-05-20T12:12:22;1999.90;;;999.90;;
14015;SDS011;7083;48.854;9.158;2023-05-20T12:14:49;1999.90;;;999.90;;
14015;SDS011;7083;48.854;9.158;2023-05-20T12:17:16;1999.90;;;999.90;;
14015;SDS011;7083;48.854;9.158;2023-05-20T12:19:42;1999.90;;;999.90;;
14015;SDS011;7083;48.854;9.158;2023-05-20T12:22:09;1999.90;;;999.90;;
14015;SDS011;7083;48.854;9.158;2023-05-20T12:24:37;1999.90;;;999.90;;
14015;SDS011;7083;48.854;9.158;2023-05-20T12:27:04;1999.90;;;999.90;;
14015;SDS011;7083;48.854;9.158;2023-05-20T12:29:31;1999.90;;;999.90;;
14015;SDS011;7083;48.854;9.158;2023-05-20T12:31:58;1999.90;;;999.90;;
14015;SDS011;7083;48.854;9.158;2023-05-20T12:34:25;1999.90;;;999.90;;
14015;SDS011;7083;48.854;9.158;2023-05-20T12:36:52;1999.90;;;999.90;;
14015;SDS011;7083;48.854;9.158;2023-05-20T12:39:18;1999.90;;;999.90;;
14015;SDS011;7083;48.854;9.158;2023-05-20T12:41:47;1999.90;;;999.90;;
14015;SDS011;7083;48.854;9.158;2023-05-20T12:44:13;1999.90;;;999.90;;
14015;SDS011;7083;48.854;9.158;2023-05-20T12:46:40;1999.90;;;999.90;;
14015;SDS011;7083;48.854;9.158;2023-05-20T12:49:07;1999.90;;;999.90;;
14015;SDS011;7083;48.854;9.158;2023-05-20T12:51:34;1999.90;;;999.90;;
14015;SDS011;7083;48.854;9.158;2023-05-20T12:54:00;1999.90;;;999.90;;
14015;SDS011;7083;48.854;9.158;2023-05-20T12:56:27;1999.90;;;999.90;;
14015;SDS011;7083;48.854;9.158;2023-05-20T12:58:55;1999.90;;;999.90;;
14015;SDS011;7083;48.854;9.158;2023-05-20T13:01:22;1999.90;;;999.90;;
14015;SDS011;7083;48.854;9.158;2023-05-20T13:03:49;1999.90;;;999.90;;
14015;SDS011;7083;48.854;9.158;2023-05-20T13:06:17;1999.90;;;999.90;;
14015;SDS011;7083;48.854;9.158;2023-05-20T13:08:44;1999.90;;;999.90;;
14015;SDS011;7083;48.854;9.158;2023-05-20T13:11:10;1999.90;;;999.90;;
14015;SDS011;7083;48.854;9.158;2023-05-20T13:13:37;1999.90;;;999.90;;
14015;SDS011;7083;48.854;9.158;2023-05-20T13:16:05;1999.90;;;999.90;;
14015;SDS011;7083;48.854;9.158;2023-05-20T13:18:32;1999.90;;;999.90;;
14015;SDS011;7083;48.854;9.158;2023-05-20T13:20:58;1999.90;;;999.90;;
14015;SDS011;7083;48.854;9.158;2023-05-20T13:23:25;1999.90;;;999.90;;
14015;SDS011;7083;48.854;9.158;2023-05-20T13:25:52;1999.90;;;999.90;;
14015;SDS011;7083;48.854;9.158;2023-05-20T13:28:19;1999.90;;;999.90;;
14015;SDS011;7083;48.854;9.158;2023-05-20T13:30:47;1999.90;;;999.90;;
14015;SDS011;7083;48.854;9.158;2023-05-20T13:33:15;1999.90;;;999.90;;
14015;SDS011;7083;48.854;9.158;2023-05-20T13:35:42;1999.90;;;999.90;;
14015;SDS011;7083;48.854;9.158;2023-05-20T13:38:09;1999.90;;;999.90;;
14015;SDS011;7083;48.854;9.158;2023-05-20T13:40:36;1999.90;;;999.90;;
14015;SDS011;7083;48.854;9.158;2023-05-20T13:43:03;1999.90;;;999.90;;
14015;SDS011;7083;48.854;9.158;2023-05-20T13:45:30;1999.90;;;999.90;;
14015;SDS011;7083;48.854;9.158;2023-05-20T13:47:57;1999.90;;;999.90;;
14015;SDS011;7083;48.854;9.158;2023-05-20T13:50:25;1999.90;;;999.90;;
14015;SDS011;7083;48.854;9.158;2023-05-20T13:52:52;1999.90;;;999.90;;
14015;SDS011;7083;48.854;9.158;2023-05-20T13:55:19;1999.90;;;999.90;;
14015;SDS011;7083;48.854;9.158;2023-05-20T13:57:46;1999.90;;;999.90;;
14015;SDS011;7083;48.854;9.158;2023-05-20T14:00:14;1999.90;;;999.90;;